createdAt,value
2024-04-23T00:00:27.949Z,57.73
2024-04-23T00:01:29.384Z,57.99
2024-04-23T00:02:30.831Z,57.66
2024-04-23T00:03:32.186Z,57.75
2024-04-23T00:04:33.968Z,57.78
2024-04-23T00:05:35.551Z,57.95
2024-04-23T00:06:37.002Z,57.99
2024-04-23T00:07:38.428Z,58.07
2024-04-23T00:08:40.362Z,57.70
2024-04-23T00:09:41.710Z,57.78
2024-04-23T00:10:43.152Z,57.81
2024-04-23T00:11:44.605Z,57.90
2024-04-23T00:12:46.235Z,57.75
2024-04-23T00:13:47.662Z,57.70
2024-04-23T00:14:49.208Z,57.84
2024-04-23T00:15:50.553Z,57.61
2024-04-23T00:17:02.132Z,57.97
2024-04-23T00:18:03.658Z,57.86
2024-04-23T00:19:05.174Z,58.08
2024-04-23T00:20:07.994Z,58.03
2024-04-23T00:21:09.531Z,58.31
2024-04-23T00:22:11.239Z,58.23
2024-04-23T00:23:13.840Z,58.20
2024-04-23T00:24:15.218Z,57.99
2024-04-23T00:25:16.759Z,58.33
2024-04-23T00:26:18.272Z,58.52
2024-04-23T00:27:19.808Z,58.39
2024-04-23T00:28:21.175Z,58.62
2024-04-23T00:29:22.998Z,58.47
2024-04-23T00:30:24.446Z,58.52
2024-04-23T00:31:26.435Z,59.00
2024-04-23T00:32:27.919Z,58.90
2024-04-23T00:33:29.401Z,59.17
2024-04-23T00:34:31.036Z,59.41
2024-04-23T00:35:32.533Z,59.63
2024-04-23T00:36:33.881Z,59.12
2024-04-23T00:37:35.358Z,59.68
2024-04-23T00:38:36.789Z,59.60
2024-04-23T00:39:38.340Z,59.87
2024-04-23T00:40:39.866Z,59.91
2024-04-23T00:41:41.416Z,60.08
2024-04-23T00:42:42.859Z,60.00
2024-04-23T00:43:44.359Z,59.73
2024-04-23T00:44:45.826Z,60.31
2024-04-23T00:45:51.170Z,60.38
2024-04-23T00:46:53.930Z,60.37
2024-04-23T00:47:56.302Z,60.70
2024-04-23T00:48:58.258Z,60.64
2024-04-23T00:50:00.658Z,60.56
2024-04-23T00:51:02.919Z,60.54
2024-04-23T00:52:04.869Z,60.82
2024-04-23T00:53:07.614Z,60.48
2024-04-23T00:54:11.118Z,60.91
2024-04-23T00:55:13.782Z,60.85
2024-04-23T00:56:16.954Z,60.94
2024-04-23T00:57:18.347Z,60.84
2024-04-23T00:58:20.030Z,61.02
2024-04-23T00:59:21.730Z,61.32
2024-04-23T01:00:23.228Z,61.25
2024-04-23T01:01:24.825Z,61.32
2024-04-23T01:02:26.622Z,61.18
2024-04-23T01:03:28.180Z,61.12
2024-04-23T01:04:29.675Z,61.02
2024-04-23T01:05:31.245Z,61.06
2024-04-23T01:06:33.404Z,60.97
2024-04-23T01:07:34.794Z,61.06
2024-04-23T01:08:36.283Z,61.21
2024-04-23T01:09:37.758Z,60.97
2024-04-23T01:10:39.553Z,61.40
2024-04-23T01:11:41.255Z,60.86
2024-04-23T01:12:42.867Z,61.23
2024-04-23T01:13:44.476Z,61.10
2024-04-23T01:14:49.000Z,60.93
2024-04-23T01:15:51.510Z,61.07
2024-04-23T01:16:53.005Z,61.02
2024-04-23T01:18:00.020Z,61.48
2024-04-23T01:19:04.174Z,61.26
2024-04-23T01:20:09.300Z,61.58
2024-04-23T01:21:12.883Z,61.36
2024-04-23T01:22:32.147Z,61.23
2024-04-23T01:23:41.288Z,60.96
2024-04-23T01:24:50.183Z,60.98
2024-04-23T01:25:54.405Z,61.42
2024-04-23T01:26:56.204Z,61.44
2024-04-23T01:27:58.044Z,61.41
2024-04-23T01:29:00.120Z,61.69
2024-04-23T01:30:02.040Z,61.69
2024-04-23T01:31:06.102Z,61.44
2024-04-23T01:32:09.106Z,61.46
2024-04-23T01:33:12.338Z,61.51
2024-04-23T01:34:14.038Z,61.48
2024-04-23T01:35:17.117Z,61.67
2024-04-23T01:36:19.350Z,61.45
2024-04-23T01:37:24.617Z,61.33
2024-04-23T01:38:26.808Z,61.10
2024-04-23T01:39:29.576Z,61.39
2024-04-23T01:40:31.847Z,61.52
2024-04-23T01:41:33.967Z,61.52
2024-04-23T01:42:37.853Z,61.36
2024-04-23T01:43:39.969Z,61.52
2024-04-23T01:44:42.478Z,61.61
2024-04-23T01:45:43.904Z,61.66
2024-04-23T01:46:46.843Z,61.19
2024-04-23T01:47:49.019Z,61.17
2024-04-23T01:48:50.827Z,61.41
2024-04-23T01:49:52.904Z,61.04
2024-04-23T01:50:55.058Z,61.09
2024-04-23T01:51:56.427Z,61.16
2024-04-23T01:52:57.997Z,61.02
2024-04-23T01:54:00.045Z,61.14
2024-04-23T01:55:01.705Z,61.21
2024-04-23T01:56:03.237Z,61.02
2024-04-23T01:57:07.451Z,61.31
2024-04-23T01:58:08.835Z,61.37
2024-04-23T01:59:10.327Z,61.19
2024-04-23T02:00:16.631Z,61.43
2024-04-23T02:01:22.219Z,61.03
2024-04-23T02:02:24.694Z,60.91
2024-04-23T02:03:27.409Z,60.93
2024-04-23T02:04:29.446Z,60.88
2024-04-23T02:05:32.180Z,60.74
2024-04-23T02:06:33.926Z,61.10
2024-04-23T02:07:36.212Z,60.80
2024-04-23T02:08:37.735Z,60.65
2024-04-23T02:09:40.503Z,61.00
2024-04-23T02:10:43.152Z,61.06
2024-04-23T02:11:45.288Z,60.78
2024-04-23T02:12:46.654Z,61.06
2024-04-23T02:13:48.248Z,60.79
2024-04-23T02:14:49.757Z,60.94
2024-04-23T02:15:51.506Z,60.68
2024-04-23T02:16:52.931Z,60.86
2024-04-23T02:17:54.781Z,60.70
2024-04-23T02:18:56.345Z,60.41
2024-04-23T02:19:57.969Z,60.43
2024-04-23T02:20:59.526Z,60.26
2024-04-23T02:22:00.973Z,60.16
2024-04-23T02:23:02.418Z,60.26
2024-04-23T02:24:04.106Z,60.27
2024-04-23T02:25:05.902Z,59.89
2024-04-23T02:26:07.374Z,60.30
2024-04-23T02:27:08.884Z,60.00
2024-04-23T02:28:10.362Z,59.74
2024-04-23T02:29:11.974Z,59.80
2024-04-23T02:30:13.514Z,59.96
2024-04-23T02:31:14.865Z,59.92
2024-04-23T02:32:16.281Z,59.76
2024-04-23T02:33:18.038Z,60.13
2024-04-23T02:34:19.524Z,60.17
2024-04-23T02:35:20.904Z,60.32
2024-04-23T02:36:22.290Z,59.74
2024-04-23T02:37:23.742Z,59.47
2024-04-23T02:38:25.095Z,59.20
2024-04-23T02:39:26.480Z,59.05
2024-04-23T02:40:27.865Z,58.80
2024-04-23T02:41:29.258Z,58.66
2024-04-23T02:42:30.633Z,58.62
2024-04-23T02:43:32.160Z,58.86
2024-04-23T02:44:33.513Z,58.80
2024-04-23T02:45:34.950Z,58.37
2024-04-23T02:46:36.370Z,58.60
2024-04-23T02:47:37.819Z,58.63
2024-04-23T02:48:39.651Z,58.51
2024-04-23T02:49:41.216Z,58.49
2024-04-23T02:50:42.676Z,58.54
2024-04-23T02:51:52.372Z,58.56
2024-04-23T02:52:53.749Z,58.94
2024-04-23T02:53:55.258Z,58.72
2024-04-23T02:54:56.598Z,58.63
2024-04-23T02:55:58.151Z,58.52
2024-04-23T02:56:59.635Z,58.88
2024-04-23T02:58:01.147Z,58.56
2024-04-23T02:59:02.497Z,58.44
2024-04-23T03:00:04.613Z,58.50
2024-04-23T03:01:06.010Z,58.55
2024-04-23T03:02:09.476Z,58.59
2024-04-23T03:03:11.113Z,58.53
2024-04-23T03:04:12.646Z,58.54
2024-04-23T03:05:14.073Z,58.79
2024-04-23T03:06:15.420Z,58.42
2024-04-23T03:07:16.848Z,58.90
2024-04-23T03:08:18.290Z,58.67
2024-04-23T03:09:19.659Z,58.97
2024-04-23T03:10:22.507Z,58.94
2024-04-23T03:11:23.959Z,59.11
2024-04-23T03:12:25.531Z,59.06
2024-04-23T03:13:27.038Z,59.18
2024-04-23T03:14:28.588Z,59.51
2024-04-23T03:15:29.965Z,59.56
2024-04-23T03:16:31.350Z,59.58
2024-04-23T03:17:32.832Z,59.58
2024-04-23T03:18:34.480Z,59.86
2024-04-23T03:19:35.958Z,59.86
2024-04-23T03:20:37.521Z,59.52
2024-04-23T03:21:50.331Z,59.58
2024-04-23T03:22:52.228Z,59.68
2024-04-23T03:23:53.625Z,59.26
2024-04-23T03:24:55.061Z,59.58
2024-04-23T03:25:56.485Z,59.45
2024-04-23T03:26:57.976Z,59.62
2024-04-23T03:27:59.418Z,59.52
2024-04-23T03:29:00.917Z,59.66
2024-04-23T03:30:02.422Z,59.56
2024-04-23T03:31:03.909Z,60.13
2024-04-23T03:32:06.386Z,59.92
2024-04-23T03:33:08.116Z,59.49
2024-04-23T03:34:09.665Z,59.89
2024-04-23T03:35:11.126Z,59.80
2024-04-23T03:36:15.800Z,59.57
2024-04-23T03:37:18.907Z,59.83
2024-04-23T03:38:20.457Z,59.70
2024-04-23T03:39:21.899Z,59.35
2024-04-23T03:40:23.366Z,59.26
2024-04-23T03:41:24.797Z,59.11
2024-04-23T03:42:26.308Z,59.07
2024-04-23T03:43:27.645Z,59.11
2024-04-23T03:44:29.427Z,58.67
2024-04-23T03:45:30.943Z,58.02
2024-04-23T03:46:32.328Z,58.07
2024-04-23T03:47:33.794Z,57.85
2024-04-23T03:48:35.482Z,57.82
2024-04-23T03:49:37.167Z,57.76
2024-04-23T03:50:38.757Z,57.71
2024-04-23T03:51:40.300Z,58.04
2024-04-23T03:52:41.666Z,57.72
2024-04-23T03:53:43.110Z,57.65
2024-04-23T03:54:46.037Z,57.67
2024-04-23T03:55:47.570Z,57.77
2024-04-23T03:56:49.036Z,57.69
2024-04-23T03:57:50.487Z,57.71
2024-04-23T03:58:52.039Z,57.59
2024-04-23T03:59:53.504Z,57.98
2024-04-23T04:00:54.891Z,57.87
2024-04-23T04:02:15.246Z,57.74
2024-04-23T04:03:35.589Z,57.72
2024-04-23T04:04:56.193Z,57.67
2024-04-23T04:06:07.666Z,57.49
2024-04-23T04:07:09.294Z,57.31
2024-04-23T04:08:10.930Z,57.27
2024-04-23T04:09:12.476Z,57.44
2024-04-23T04:10:13.889Z,57.49
2024-04-23T04:11:15.322Z,57.44
2024-04-23T04:12:16.825Z,57.28
2024-04-23T04:13:23.705Z,57.68
2024-04-23T04:14:26.023Z,57.41
2024-04-23T04:15:27.488Z,57.23
2024-04-23T04:16:32.627Z,57.70
2024-04-23T04:17:36.520Z,57.52
2024-04-23T04:18:38.394Z,57.59
2024-04-23T04:19:42.149Z,57.75
2024-04-23T04:20:43.702Z,57.57
2024-04-23T04:21:45.120Z,57.34
2024-04-23T04:22:46.644Z,57.43
2024-04-23T04:23:48.091Z,57.57
2024-04-23T04:24:49.486Z,57.45
2024-04-23T04:25:51.433Z,57.40
2024-04-23T04:26:52.878Z,57.73
2024-04-23T04:27:54.262Z,57.65
2024-04-23T04:28:55.647Z,58.03
2024-04-23T04:29:57.162Z,57.87
2024-04-23T04:30:58.628Z,57.99
2024-04-23T04:32:00.166Z,57.84
2024-04-23T04:33:01.875Z,57.95
2024-04-23T04:34:03.371Z,58.25
2024-04-23T04:35:05.535Z,58.01
2024-04-23T04:36:07.260Z,58.17
2024-04-23T04:37:08.724Z,58.10
2024-04-23T04:38:10.363Z,58.35
2024-04-23T04:39:13.194Z,58.27
2024-04-23T04:40:14.665Z,58.39
2024-04-23T04:41:16.091Z,57.92
2024-04-23T04:42:17.525Z,58.27
2024-04-23T04:43:18.976Z,58.05
2024-04-23T04:44:20.428Z,58.24
2024-04-23T04:45:21.871Z,58.14
2024-04-23T04:46:23.316Z,57.89
2024-04-23T04:47:24.731Z,58.15
2024-04-23T04:48:26.430Z,57.60
2024-04-23T04:49:27.984Z,57.49
2024-04-23T04:50:29.487Z,57.52
2024-04-23T04:51:30.999Z,57.85
2024-04-23T04:52:32.650Z,57.45
2024-04-23T04:53:34.214Z,57.46
2024-04-23T04:54:35.735Z,57.36
2024-04-23T04:55:37.292Z,57.12
2024-04-23T04:56:38.940Z,57.20
2024-04-23T04:57:40.456Z,57.08
2024-04-23T04:58:41.841Z,57.06
2024-04-23T04:59:43.336Z,57.18
2024-04-23T05:00:45.119Z,56.58
2024-04-23T05:01:47.669Z,56.59
2024-04-23T05:02:49.148Z,56.81
2024-04-23T05:03:50.664Z,56.09
2024-04-23T05:04:52.113Z,55.93
2024-04-23T05:05:53.478Z,56.14
2024-04-23T05:06:54.888Z,55.90
2024-04-23T05:07:56.458Z,55.81
2024-04-23T05:08:57.946Z,55.73
2024-04-23T05:09:59.333Z,55.78
2024-04-23T05:11:00.779Z,55.86
2024-04-23T05:12:02.922Z,55.72
2024-04-23T05:13:04.634Z,55.63
2024-04-23T05:14:06.029Z,55.71
2024-04-23T05:15:07.765Z,55.18
2024-04-23T05:16:09.268Z,55.42
2024-04-23T05:17:11.031Z,55.13
2024-04-23T05:18:12.791Z,54.90
2024-04-23T05:19:14.429Z,54.95
2024-04-23T05:20:16.057Z,55.33
2024-04-23T05:21:17.683Z,55.06
2024-04-23T05:22:19.074Z,54.95
2024-04-23T05:23:20.581Z,55.27
2024-04-23T05:24:22.050Z,55.38
2024-04-23T05:25:24.574Z,55.36
2024-04-23T05:26:27.722Z,54.75
2024-04-23T05:27:29.206Z,54.68
2024-04-23T05:28:30.680Z,54.95
2024-04-23T05:29:32.199Z,55.26
2024-04-23T05:30:52.186Z,54.56
2024-04-23T05:32:12.724Z,54.38
2024-04-23T05:33:15.082Z,54.59
2024-04-23T05:34:16.658Z,54.58
2024-04-23T05:35:18.434Z,54.75
2024-04-23T05:36:23.640Z,54.59
2024-04-23T05:37:25.216Z,54.66
2024-04-23T05:38:28.579Z,54.89
2024-04-23T05:39:30.109Z,54.58
2024-04-23T05:40:31.530Z,54.65
2024-04-23T05:41:33.407Z,54.83
2024-04-23T05:42:35.253Z,54.55
2024-04-23T05:43:36.719Z,54.76
2024-04-23T05:44:38.109Z,54.56
2024-04-23T05:45:39.621Z,54.55
2024-04-23T05:46:41.026Z,54.22
2024-04-23T05:48:20.409Z,54.25
2024-04-23T05:49:59.710Z,54.05
2024-04-23T05:51:39.107Z,53.86
2024-04-23T05:53:18.534Z,53.56
2024-04-23T05:54:57.626Z,53.46
2024-04-23T05:55:59.019Z,53.11
2024-04-23T05:57:00.468Z,52.72
2024-04-23T05:58:02.456Z,52.57
2024-04-23T05:59:03.965Z,52.49
2024-04-23T06:00:06.142Z,52.51
2024-04-23T06:01:07.766Z,52.60
2024-04-23T06:02:09.282Z,52.43
2024-04-23T06:03:11.042Z,52.10
2024-04-23T06:04:12.578Z,52.40
2024-04-23T06:05:14.246Z,52.68
2024-04-23T06:06:15.794Z,52.49
2024-04-23T06:07:18.940Z,52.84
2024-04-23T06:08:20.478Z,52.55
2024-04-23T06:09:22.006Z,52.36
2024-04-23T06:10:23.476Z,52.23
2024-04-23T06:11:25.058Z,51.74
2024-04-23T06:12:26.488Z,51.62
2024-04-23T06:13:27.998Z,51.45
2024-04-23T06:14:29.536Z,50.82
2024-04-23T06:15:30.981Z,51.06
2024-04-23T06:16:32.472Z,50.72
2024-04-23T06:17:41.478Z,50.33
2024-04-23T06:18:47.782Z,50.44
2024-04-23T06:19:51.567Z,50.76
2024-04-23T06:20:53.505Z,50.66
2024-04-23T06:21:57.045Z,49.42
2024-04-23T06:22:58.633Z,49.51
2024-04-23T06:24:00.174Z,49.60
2024-04-23T06:25:01.513Z,49.16
2024-04-23T06:26:06.583Z,47.74
2024-04-23T06:27:08.434Z,47.25
2024-04-23T06:28:09.884Z,46.40
2024-04-23T06:29:11.235Z,46.22
2024-04-23T06:30:16.994Z,46.01
2024-04-23T06:31:18.494Z,45.71
2024-04-23T06:32:21.710Z,45.99
2024-04-23T06:33:23.287Z,45.52
2024-04-23T06:34:24.840Z,46.04
2024-04-23T06:35:26.309Z,46.08
2024-04-23T06:36:27.776Z,45.27
2024-04-23T06:37:29.322Z,45.07
2024-04-23T06:38:31.045Z,45.49
2024-04-23T06:39:32.582Z,44.88
2024-04-23T06:40:34.169Z,44.61
2024-04-23T06:41:35.580Z,44.76
2024-04-23T06:42:37.371Z,44.93
2024-04-23T06:43:38.755Z,44.93
2024-04-23T06:44:40.240Z,44.69
2024-04-23T06:45:42.363Z,44.87
2024-04-23T06:46:43.853Z,45.02
2024-04-23T06:47:46.795Z,44.71
2024-04-23T06:48:48.414Z,44.86
2024-04-23T06:49:49.879Z,44.98
2024-04-23T06:50:51.240Z,45.11
2024-04-23T06:51:52.790Z,44.35
2024-04-23T06:52:55.501Z,44.53
2024-04-23T06:53:57.060Z,44.80
2024-04-23T06:54:59.272Z,45.04
2024-04-23T06:56:02.133Z,44.80
2024-04-23T06:57:03.727Z,44.23
2024-04-23T06:58:05.375Z,44.02
2024-04-23T06:59:09.758Z,43.64
2024-04-23T07:00:11.743Z,43.57
2024-04-23T07:01:15.533Z,44.31
2024-04-23T07:02:17.106Z,44.67
2024-04-23T07:03:18.695Z,44.00
2024-04-23T07:04:20.118Z,44.51
2024-04-23T07:05:21.718Z,44.42
2024-04-23T07:06:23.076Z,44.03
2024-04-23T07:07:24.489Z,44.60
2024-04-23T07:08:26.027Z,44.53
2024-04-23T07:09:27.384Z,44.09
2024-04-23T07:10:28.749Z,44.11
2024-04-23T07:11:30.143Z,43.50
2024-04-23T07:12:31.795Z,43.54
2024-04-23T07:13:33.272Z,43.74
2024-04-23T07:14:35.804Z,43.20
2024-04-23T07:15:37.346Z,43.81
2024-04-23T07:16:39.814Z,43.79
2024-04-23T07:17:41.560Z,43.32
2024-04-23T07:18:53.757Z,42.08
2024-04-23T07:20:01.776Z,43.36
2024-04-23T07:21:03.570Z,43.29
2024-04-23T07:22:04.931Z,43.37
2024-04-23T07:23:06.477Z,43.25
2024-04-23T07:24:08.336Z,42.66
2024-04-23T07:25:09.675Z,41.98
2024-04-23T07:26:11.089Z,42.16
2024-04-23T07:27:12.760Z,41.69
2024-04-23T07:28:14.248Z,41.84
2024-04-23T07:29:15.631Z,42.13
2024-04-23T07:30:17.113Z,42.26
2024-04-23T07:31:18.519Z,42.21
2024-04-23T07:32:20.274Z,41.40
2024-04-23T07:33:22.082Z,41.20
2024-04-23T07:34:23.711Z,41.59
2024-04-23T07:35:26.316Z,41.98
2024-04-23T07:36:29.971Z,42.34
2024-04-23T07:37:31.719Z,41.63
2024-04-23T07:38:33.312Z,41.50
2024-04-23T07:39:34.656Z,41.13
2024-04-23T07:40:36.953Z,41.18
2024-04-23T07:41:38.449Z,41.61
2024-04-23T07:42:40.091Z,41.59
2024-04-23T07:43:42.388Z,41.52
2024-04-23T07:44:44.096Z,41.98
2024-04-23T07:45:45.541Z,41.48
2024-04-23T07:46:47.097Z,40.55
2024-04-23T07:47:48.965Z,41.22
2024-04-23T07:48:50.607Z,41.55
2024-04-23T07:49:52.100Z,41.58
2024-04-23T07:50:53.668Z,41.94
2024-04-23T07:51:55.031Z,41.44
2024-04-23T07:52:56.573Z,41.06
2024-04-23T07:53:58.221Z,41.84
2024-04-23T07:54:59.744Z,41.06
2024-04-23T07:56:01.402Z,41.48
2024-04-23T07:57:02.958Z,41.83
2024-04-23T07:58:04.557Z,41.84
2024-04-23T07:59:06.090Z,41.66
2024-04-23T08:00:10.050Z,41.81
2024-04-23T08:01:11.524Z,41.97
2024-04-23T08:02:13.280Z,41.97
2024-04-23T08:03:14.869Z,41.85
2024-04-23T08:04:16.467Z,41.59
2024-04-23T08:05:18.049Z,41.80
2024-04-23T08:06:19.493Z,42.02
2024-04-23T08:07:21.121Z,41.89
2024-04-23T08:08:22.784Z,42.10
2024-04-23T08:09:24.338Z,41.85
2024-04-23T08:10:25.777Z,41.60
2024-04-23T08:11:27.180Z,41.47
2024-04-23T08:12:28.837Z,41.61
2024-04-23T08:13:31.256Z,42.38
2024-04-23T08:14:33.459Z,42.79
2024-04-23T08:15:34.901Z,42.59
2024-04-23T08:16:36.395Z,42.01
2024-04-23T08:17:38.121Z,42.51
2024-04-23T08:18:41.702Z,42.80
2024-04-23T08:19:43.473Z,43.19
2024-04-23T08:20:44.966Z,42.75
2024-04-23T08:21:46.415Z,42.94
2024-04-23T08:22:48.012Z,42.46
2024-04-23T08:23:50.474Z,42.53
2024-04-23T08:24:51.965Z,42.56
2024-04-23T08:25:53.660Z,42.97
2024-04-23T08:26:55.111Z,42.37
2024-04-23T08:27:56.541Z,42.40
2024-04-23T08:28:58.359Z,43.58
2024-04-23T08:29:59.809Z,43.46
2024-04-23T08:31:01.251Z,43.19
2024-04-23T08:32:02.944Z,43.46
2024-04-23T08:33:04.611Z,43.08
2024-04-23T08:34:06.263Z,43.83
2024-04-23T08:35:07.762Z,43.94
2024-04-23T08:36:09.242Z,43.35
2024-04-23T08:37:10.825Z,43.95
2024-04-23T08:38:12.876Z,43.61
2024-04-23T08:39:14.482Z,43.98
2024-04-23T08:40:15.991Z,43.78
2024-04-23T08:41:19.209Z,44.06
2024-04-23T08:42:25.235Z,44.04
2024-04-23T08:43:33.719Z,43.65
2024-04-23T08:44:38.074Z,43.67
2024-04-23T08:45:41.378Z,43.91
2024-04-23T08:46:43.178Z,44.49
2024-04-23T08:47:45.399Z,44.27
2024-04-23T08:48:47.586Z,43.64
2024-04-23T08:49:49.911Z,43.67
2024-04-23T08:50:52.170Z,43.57
2024-04-23T08:51:55.211Z,43.53
2024-04-23T08:52:57.326Z,43.74
2024-04-23T08:53:59.852Z,43.94
2024-04-23T08:55:02.235Z,44.03
2024-04-23T08:56:06.919Z,43.78
2024-04-23T08:57:09.523Z,43.64
2024-04-23T08:58:13.729Z,43.52
2024-04-23T08:59:18.372Z,43.26
2024-04-23T09:00:21.093Z,43.78
2024-04-23T09:01:29.014Z,43.56
2024-04-23T09:02:37.372Z,43.75
2024-04-23T09:03:45.829Z,43.99
2024-04-23T09:04:47.568Z,43.46
2024-04-23T09:05:50.527Z,43.85
2024-04-23T09:06:53.139Z,44.11
2024-04-23T09:07:56.270Z,44.09
2024-04-23T09:09:00.812Z,43.98
2024-04-23T09:10:07.171Z,43.87
2024-04-23T09:11:08.773Z,43.89
2024-04-23T09:12:10.883Z,43.80
2024-04-23T09:13:13.095Z,43.58
2024-04-23T09:14:14.701Z,43.61
2024-04-23T09:15:16.489Z,43.30
2024-04-23T09:16:18.157Z,43.40
2024-04-23T09:17:19.652Z,43.49
2024-04-23T09:18:22.302Z,43.29
2024-04-23T09:19:25.117Z,43.37
2024-04-23T09:20:27.328Z,43.77
2024-04-23T09:21:29.041Z,43.61
2024-04-23T09:22:30.403Z,42.96
2024-04-23T09:23:34.985Z,42.73
2024-04-23T09:24:36.438Z,43.01
2024-04-23T09:25:38.495Z,43.26
2024-04-23T09:26:41.863Z,42.68
2024-04-23T09:27:43.572Z,42.43
2024-04-23T09:28:47.563Z,42.73
2024-04-23T09:29:55.080Z,42.88
2024-04-23T09:30:57.147Z,42.90
2024-04-23T09:32:00.787Z,43.77
2024-04-23T09:33:04.120Z,43.77
2024-04-23T09:34:11.150Z,43.17
2024-04-23T09:35:16.696Z,42.92
2024-04-23T09:36:21.648Z,42.20
2024-04-23T09:37:23.190Z,41.54
2024-04-23T09:38:24.568Z,41.20
2024-04-23T09:39:26.073Z,41.17
2024-04-23T09:40:28.448Z,41.00
2024-04-23T09:41:31.610Z,41.30
2024-04-23T09:42:35.387Z,41.20
2024-04-23T09:43:37.806Z,40.73
2024-04-23T09:44:39.326Z,41.26
2024-04-23T09:45:41.740Z,40.98
2024-04-23T09:46:45.819Z,41.03
2024-04-23T09:47:47.369Z,40.78
2024-04-23T09:48:52.289Z,40.61
2024-04-23T09:49:55.431Z,40.75
2024-04-23T09:51:07.669Z,40.88
2024-04-23T09:52:09.195Z,40.99
2024-04-23T09:53:12.828Z,40.53
2024-04-23T09:54:14.707Z,39.52
2024-04-23T09:55:17.907Z,38.71
2024-04-23T09:56:20.725Z,39.41
2024-04-23T09:57:22.137Z,39.09
2024-04-23T09:58:28.113Z,39.81
2024-04-23T09:59:31.330Z,40.13
2024-04-23T10:00:34.819Z,40.10
2024-04-23T10:01:38.623Z,39.44
2024-04-23T10:02:45.480Z,39.12
2024-04-23T10:03:52.289Z,38.82
2024-04-23T10:05:16.771Z,39.02
2024-04-23T10:06:25.088Z,39.32
2024-04-23T10:07:29.173Z,39.19
2024-04-23T10:08:49.014Z,40.00
2024-04-23T10:09:51.131Z,39.43
2024-04-23T10:10:56.080Z,39.33
2024-04-23T10:12:08.997Z,39.44
2024-04-23T10:13:16.074Z,39.64
2024-04-23T10:14:24.887Z,39.56
2024-04-23T10:16:04.875Z,40.05
2024-04-23T10:17:18.752Z,39.66
2024-04-23T10:18:55.739Z,40.14
2024-04-23T10:19:58.869Z,39.95
2024-04-23T10:21:02.465Z,39.63
2024-04-23T10:22:05.578Z,38.59
2024-04-23T10:23:07.196Z,38.66
2024-04-23T10:24:13.459Z,38.73
2024-04-23T10:25:15.720Z,38.82
2024-04-23T10:26:17.508Z,39.22
2024-04-23T10:27:21.838Z,39.04
2024-04-23T10:28:23.838Z,38.21
2024-04-23T10:29:26.822Z,38.09
2024-04-23T10:30:30.158Z,38.42
2024-04-23T10:31:34.772Z,38.69
2024-04-23T10:32:38.641Z,38.70
2024-04-23T10:33:41.307Z,38.80
2024-04-23T10:34:44.158Z,38.76
2024-04-23T10:35:48.352Z,38.33
2024-04-23T10:36:52.319Z,37.29
2024-04-23T10:37:54.749Z,37.64
2024-04-23T10:39:00.418Z,37.41
2024-04-23T10:40:03.846Z,37.48
2024-04-23T10:41:06.160Z,37.89
2024-04-23T10:42:09.449Z,36.91
2024-04-23T10:43:11.612Z,36.77
2024-04-23T10:44:17.230Z,36.92
2024-04-23T10:45:18.964Z,36.72
2024-04-23T10:46:21.179Z,36.91
2024-04-23T10:47:22.724Z,36.62
2024-04-23T10:48:27.978Z,36.52
2024-04-23T10:49:29.902Z,36.12
2024-04-23T10:50:32.314Z,35.75
2024-04-23T10:51:34.931Z,36.02
2024-04-23T10:52:36.653Z,35.90
2024-04-23T10:53:39.785Z,35.12
2024-04-23T10:54:41.352Z,34.63
2024-04-23T10:55:50.503Z,35.09
2024-04-23T10:57:05.946Z,35.72
2024-04-23T10:58:08.345Z,36.06
2024-04-23T10:59:18.823Z,36.59
2024-04-23T11:00:37.796Z,36.66
2024-04-23T11:01:51.510Z,36.48
2024-04-23T11:02:54.246Z,35.73
2024-04-23T11:04:04.466Z,36.51
2024-04-23T11:05:06.334Z,35.80
2024-04-23T11:06:11.357Z,35.28
2024-04-23T11:07:28.732Z,34.59
2024-04-23T11:08:32.033Z,35.13
2024-04-23T11:09:36.464Z,35.28
2024-04-23T11:11:03.342Z,34.61
2024-04-23T11:12:17.688Z,35.48
2024-04-23T11:13:30.146Z,35.60
2024-04-23T11:14:38.019Z,35.23
2024-04-23T11:15:39.367Z,35.23
2024-04-23T11:16:40.816Z,35.25
2024-04-23T11:17:42.544Z,35.14
2024-04-23T11:18:48.266Z,35.09
2024-04-23T11:19:52.914Z,34.82
2024-04-23T11:20:57.539Z,35.22
2024-04-23T11:22:01.614Z,34.89
2024-04-23T11:23:07.707Z,34.91
2024-04-23T11:24:13.148Z,35.57
2024-04-23T11:25:26.034Z,35.59
2024-04-23T11:26:30.462Z,33.28
2024-04-23T11:27:32.458Z,33.01
2024-04-23T11:28:37.144Z,33.94
2024-04-23T11:29:43.470Z,34.17
2024-04-23T11:30:52.798Z,34.65
2024-04-23T11:31:55.471Z,33.77
2024-04-23T11:32:58.074Z,33.71
2024-04-23T11:33:59.881Z,33.98
2024-04-23T11:35:07.475Z,34.16
2024-04-23T11:36:12.261Z,34.67
2024-04-23T11:37:30.930Z,34.74
2024-04-23T11:38:44.946Z,34.66
2024-04-23T11:39:46.582Z,33.44
2024-04-23T11:40:48.303Z,33.54
2024-04-23T11:41:50.819Z,34.40
2024-04-23T11:42:52.724Z,34.26
2024-04-23T11:43:54.420Z,33.93
2024-04-23T11:45:03.716Z,34.41
2024-04-23T11:46:07.321Z,33.53
2024-04-23T11:47:12.852Z,33.15
2024-04-23T11:48:17.762Z,33.99
2024-04-23T11:49:20.234Z,33.81
2024-04-23T11:50:21.824Z,33.59
2024-04-23T11:51:23.355Z,33.66
2024-04-23T11:52:25.066Z,33.73
2024-04-23T11:53:27.153Z,33.47
2024-04-23T11:54:28.944Z,33.35
2024-04-23T11:55:30.737Z,33.77
2024-04-23T11:56:32.183Z,33.45
2024-04-23T11:57:33.664Z,33.85
2024-04-23T11:58:39.777Z,34.29
2024-04-23T11:59:45.086Z,34.86
2024-04-23T12:00:46.644Z,33.94
2024-04-23T12:01:50.951Z,34.24
2024-04-23T12:02:52.480Z,34.56
2024-04-23T12:03:54.198Z,34.52
2024-04-23T12:04:59.654Z,34.15
2024-04-23T12:06:02.142Z,34.60
2024-04-23T12:07:04.998Z,35.17
2024-04-23T12:08:07.108Z,35.08
2024-04-23T12:09:10.146Z,35.06
2024-04-23T12:10:27.925Z,34.97
2024-04-23T12:11:29.514Z,35.27
2024-04-23T12:12:34.938Z,35.64
2024-04-23T12:13:36.619Z,35.89
2024-04-23T12:14:39.872Z,35.62
2024-04-23T12:15:41.611Z,35.76
2024-04-23T12:16:43.852Z,34.95
2024-04-23T12:17:45.856Z,34.21
2024-04-23T12:18:47.804Z,34.13
2024-04-23T12:19:49.849Z,34.23
2024-04-23T12:20:51.377Z,33.85
2024-04-23T12:21:55.613Z,34.06
2024-04-23T12:23:13.172Z,34.39
2024-04-23T12:24:16.570Z,34.12
2024-04-23T12:25:19.182Z,34.34
2024-04-23T12:26:22.705Z,34.69
2024-04-23T12:27:24.217Z,34.87
2024-04-23T12:28:25.935Z,35.03
2024-04-23T12:29:30.885Z,35.30
2024-04-23T12:30:32.711Z,35.44
2024-04-23T12:31:34.148Z,35.69
2024-04-23T12:32:35.831Z,35.95
2024-04-23T12:33:38.362Z,36.57
2024-04-23T12:34:40.119Z,37.01
2024-04-23T12:35:41.887Z,36.79
2024-04-23T12:36:53.378Z,36.05
2024-04-23T12:37:59.509Z,35.87
2024-04-23T12:39:11.178Z,35.82
2024-04-23T12:40:12.699Z,36.46
2024-04-23T12:41:21.616Z,36.70
2024-04-23T12:42:27.468Z,36.64
2024-04-23T12:43:29.216Z,36.69
2024-04-23T12:44:30.873Z,36.18
2024-04-23T12:45:32.406Z,36.22
2024-04-23T12:46:33.846Z,36.73
2024-04-23T12:47:35.469Z,36.07
2024-04-23T12:48:39.205Z,35.72
2024-04-23T12:49:42.133Z,36.17
2024-04-23T12:50:43.927Z,35.44
2024-04-23T12:51:45.881Z,35.19
2024-04-23T12:52:47.244Z,35.05
2024-04-23T12:53:48.807Z,34.35
2024-04-23T12:54:50.213Z,34.31
2024-04-23T12:55:51.703Z,34.88
2024-04-23T12:56:54.879Z,35.25
2024-04-23T12:57:56.677Z,35.40
2024-04-23T12:58:58.256Z,34.81
2024-04-23T12:59:59.952Z,35.05
2024-04-23T13:01:01.829Z,35.39
2024-04-23T13:02:03.757Z,34.92
2024-04-23T13:03:06.463Z,35.15
2024-04-23T13:04:08.234Z,35.36
2024-04-23T13:05:09.958Z,34.85
2024-04-23T13:06:11.874Z,35.18
2024-04-23T13:07:14.273Z,35.15
2024-04-23T13:08:16.861Z,35.34
2024-04-23T13:09:18.309Z,35.90
2024-04-23T13:10:19.784Z,36.35
2024-04-23T13:11:21.389Z,36.43
2024-04-23T13:12:22.870Z,36.18
2024-04-23T13:13:24.949Z,36.03
2024-04-23T13:14:26.470Z,35.47
2024-04-23T13:15:28.027Z,35.73
2024-04-23T13:17:34.972Z,35.55
2024-04-23T13:18:38.543Z,35.81
2024-04-23T13:19:45.114Z,35.77
2024-04-23T13:20:51.131Z,36.25
2024-04-23T13:21:52.660Z,36.16
2024-04-23T13:22:54.332Z,35.93
2024-04-23T13:23:55.819Z,35.73
2024-04-23T13:24:57.276Z,35.42
2024-04-23T13:25:58.675Z,34.80
2024-04-23T13:27:00.450Z,35.29
2024-04-23T13:28:05.177Z,35.12
2024-04-23T13:29:08.528Z,34.66
2024-04-23T13:30:10.610Z,35.08
2024-04-23T13:31:12.014Z,34.58
2024-04-23T13:32:14.090Z,34.63
2024-04-23T13:33:15.859Z,35.16
2024-04-23T13:34:17.496Z,35.51
2024-04-23T13:35:19.368Z,35.35